KSVE/SVE METAR and TAF weather

Enter ICAO airport designator
Station Type Date Time Source
KSVE METAR 2019/10/23 12:35 UTC NOAA

KSVE 231235Z AUTO 31004KT 10SM CLR 03/02 A3030 RMK AO2


Station Type Date Time Source
KSVE Decoded METAR 2019/10/23 12:35 UTC NOAA

Susanville Municipal, CA, United States (KSVE) 40-23N 120-34W
Oct 23, 2019 - 08:35 AM EDT / 2019.10.23 1235 UTC
Wind: from the NW (310 degrees) at 5 MPH (4 KT):0
Visibility: 10 mile(s):0
Sky conditions: clear
Temperature: 37 F (3 C)
Dew Point: 35 F (2 C)
Relative Humidity: 93%
Pressure (altimeter): 30.3 in. Hg (1026 hPa)
ob: KSVE 231235Z AUTO 31004KT 10SM CLR 03/02 A3030 RMK AO2
cycle: 12

Station Type Date Time Source
KSVE TAF UTC NOAA

Error!

Example: see airport list